Aérodrome de Toulouse-Lasbordes

LFCL · Upper Garonne, Occitanie, 法国

罗盘
风向 的 风向 的 风向 到 风向 340° Toulouse-Lasbordes Airport 15/33
风: 8 kt, 3 beaufort

8 kt

1 kt
改变
0 ft 1.000 2.000 3.000 4.000 5.000
CAVOK
METAR LFBF 201030Z AUTO 34008KT 290V020 CAVOK 16/06 Q1021

METAR Toulouse-Lasbordes Airport - LFCL

Toulouse-Lasbordes Airport是,法国中的小机场。 该机场位于纬度43,58726和经度1,49891。 该机场有2条跑道: 15/33 和 15R/33L. 本场的ICAO机场代码为LFCL。 机场在Bordeaux FIR中。

该航空气象观测是针对Toulouse-Francazal在2024年4月20日 12:30, 当地时间进行的。

机场观察

风向为340°,速度为8 kt。 风向在290°和020°之间变化。

天气为CAVOK。这意味着在5.000 ft或MSA(最低安全高度)以下(以较高者为准)以下没有云。这也意味着没有观测到积雨云或高耸的积云,可见度为10 km 或者更多或更高。此外,不会有雾,降雨或其他重要天气。

温度和风寒是16 °C。 露点为6 °C,相对湿度为52%。 海平面上的气压为1021 hPa (QNH)。

白天

今天,太阳从07:02升起,在20:43降落。 这适用于Toulouse-Lasbordes Airport,世界夏令时可能有所不同。 当地时间与世界标准时间之间的时差为+2 小时。 夏令时目前正在进行中。

公司介绍

在这个机场,你可以找到飞行俱乐部。 这个机场上的公司有Aéroclub Toulouse Midi Pyrénées, Aéroclub CE AIRBUS-France Toulouse - ACAT, Les Ailes Toulousaines, Aéroclub de l'ENAC 和 Aéroclub Marcel Dassault - Louis Breguet。

体会

到Vliegles.nl去找飞行课程,跳伞和其他飞行体验。 浏览页面,了解Toulouse-Lasbordes Airport附近所有可用的活动。 你也可以使用搜索功能来寻找你所在地附近的特定飞行课程、跳伞或其他飞行体验。

跑道

Id 标题 侧风 逆风 侧风 %
15/33 154°-334° 8 kt 10 %
15R/33L 154°-334° 8 kt 10 %

逆风成分最大的方向会被突出显示,并用于横风计算。 这并不一定意味着这个方向在使用。

温度 & 天气

温度 16 °C
露点 6 °C
相对湿度 52%
Kp-index 2 (0-9)

白天

日出
07:02
中午
13:53
日落
20:43 (7:47)

小工具

你想在你的网站上有一个关于Toulouse-Lasbordes Airport的当前航空天气(METAR)的小部件吗?

显示HTML代码
报告变更